sensor_id;sensor_type;location;lat;lon;timestamp;temperature;humidity
52555;DHT22;38455;52.710;6.502;2023-02-15T00:01:41;1.80;99.90
52555;DHT22;38455;52.710;6.502;2023-02-15T00:04:09;1.70;99.90
52555;DHT22;38455;52.710;6.502;2023-02-15T00:06:35;1.60;99.90
52555;DHT22;38455;52.710;6.502;2023-02-15T00:09:01;1.70;99.90
52555;DHT22;38455;52.710;6.502;2023-02-15T00:11:28;1.70;99.90
52555;DHT22;38455;52.710;6.502;2023-02-15T00:14:06;1.60;99.90
52555;DHT22;38455;52.710;6.502;2023-02-15T00:16:32;1.50;99.90
52555;DHT22;38455;52.710;6.502;2023-02-15T00:18:58;1.40;99.90
52555;DHT22;38455;52.710;6.502;2023-02-15T00:21:28;1.30;99.90
52555;DHT22;38455;52.710;6.502;2023-02-15T00:23:55;1.40;99.90
52555;DHT22;38455;52.710;6.502;2023-02-15T00:26:21;1.30;99.90
52555;DHT22;38455;52.710;6.502;2023-02-15T00:28:47;1.30;99.90
52555;DHT22;38455;52.710;6.502;2023-02-15T00:31:13;1.30;99.90
52555;DHT22;38455;52.710;6.502;2023-02-15T00:33:39;1.30;99.90
52555;DHT22;38455;52.710;6.502;2023-02-15T00:36:07;1.30;99.90
52555;DHT22;38455;52.710;6.502;2023-02-15T00:38:34;1.20;99.90
52555;DHT22;38455;52.710;6.502;2023-02-15T00:41:02;1.20;99.90
52555;DHT22;38455;52.710;6.502;2023-02-15T00:43:29;1.20;99.90
52555;DHT22;38455;52.710;6.502;2023-02-15T00:45:55;1.20;99.90
52555;DHT22;38455;52.710;6.502;2023-02-15T00:48:21;1.20;99.90
52555;DHT22;38455;52.710;6.502;2023-02-15T00:50:50;1.20;99.90
52555;DHT22;38455;52.710;6.502;2023-02-15T00:53:16;1.20;99.90
52555;DHT22;38455;52.710;6.502;2023-02-15T00:55:42;1.20;99.90
52555;DHT22;38455;52.710;6.502;2023-02-15T00:58:09;1.10;99.90
52555;DHT22;38455;52.710;6.502;2023-02-15T01:00:35;1.20;99.90
52555;DHT22;38455;52.710;6.502;2023-02-15T01:03:01;1.10;99.90
52555;DHT22;38455;52.710;6.502;2023-02-15T01:05:27;1.10;99.90
52555;DHT22;38455;52.710;6.502;2023-02-15T01:07:52;1.10;99.90
52555;DHT22;38455;52.710;6.502;2023-02-15T01:10:18;1.00;99.90
52555;DHT22;38455;52.710;6.502;2023-02-15T01:12:44;1.00;99.90
52555;DHT22;38455;52.710;6.502;2023-02-15T01:15:09;1.00;99.90
52555;DHT22;38455;52.710;6.502;2023-02-15T01:17:35;0.90;99.90
52555;DHT22;38455;52.710;6.502;2023-02-15T01:20:01;0.90;99.90
52555;DHT22;38455;52.710;6.502;2023-02-15T01:22:27;1.00;99.90
52555;DHT22;38455;52.710;6.502;2023-02-15T01:24:52;1.00;99.90
52555;DHT22;38455;52.710;6.502;2023-02-15T01:27:18;1.00;99.90
52555;DHT22;38455;52.710;6.502;2023-02-15T01:29:43;1.00;99.90
52555;DHT22;38455;52.710;6.502;2023-02-15T01:32:09;1.00;99.90
52555;DHT22;38455;52.710;6.502;2023-02-15T01:34:35;1.00;99.90
52555;DHT22;38455;52.710;6.502;2023-02-15T01:37:00;1.00;99.90
52555;DHT22;38455;52.710;6.502;2023-02-15T01:39:26;1.00;99.90
52555;DHT22;38455;52.710;6.502;2023-02-15T01:41:52;1.00;99.90
52555;DHT22;38455;52.710;6.502;2023-02-15T01:47:10;1.00;99.90
52555;DHT22;38455;52.710;6.502;2023-02-15T01:49:38;0.90;99.90
52555;DHT22;38455;52.710;6.502;2023-02-15T01:52:07;0.80;99.90
52555;DHT22;38455;52.710;6.502;2023-02-15T01:54:34;0.70;99.90
52555;DHT22;38455;52.710;6.502;2023-02-15T01:57:04;0.70;99.90
52555;DHT22;38455;52.710;6.502;2023-02-15T01:59:33;0.70;99.90
52555;DHT22;38455;52.710;6.502;2023-02-15T02:02:02;0.60;99.90
52555;DHT22;38455;52.710;6.502;2023-02-15T02:04:38;0.60;99.90
52555;DHT22;38455;52.710;6.502;2023-02-15T02:07:05;0.60;99.90
52555;DHT22;38455;52.710;6.502;2023-02-15T02:09:31;0.60;99.90
52555;DHT22;38455;52.710;6.502;2023-02-15T02:11:57;0.60;99.90
52555;DHT22;38455;52.710;6.502;2023-02-15T02:14:23;0.50;99.90
52555;DHT22;38455;52.710;6.502;2023-02-15T02:17:04;0.50;99.90
52555;DHT22;38455;52.710;6.502;2023-02-15T02:34:16;0.50;99.90
52555;DHT22;38455;52.710;6.502;2023-02-15T02:39:42;0.40;99.90
52555;DHT22;38455;52.710;6.502;2023-02-15T02:42:35;0.40;99.90
52555;DHT22;38455;52.710;6.502;2023-02-15T02:45:28;0.30;99.90
52555;DHT22;38455;52.710;6.502;2023-02-15T02:48:06;0.20;99.90
52555;DHT22;38455;52.710;6.502;2023-02-15T02:50:33;0.20;99.90
52555;DHT22;38455;52.710;6.502;2023-02-15T02:52:59;0.20;99.90
52555;DHT22;38455;52.710;6.502;2023-02-15T02:55:34;0.20;99.90
52555;DHT22;38455;52.710;6.502;2023-02-15T03:00:56;0.30;99.90
52555;DHT22;38455;52.710;6.502;2023-02-15T03:05:54;0.30;99.90
52555;DHT22;38455;52.710;6.502;2023-02-15T03:08:24;0.30;99.90
52555;DHT22;38455;52.710;6.502;2023-02-15T03:10:55;0.30;99.90
52555;DHT22;38455;52.710;6.502;2023-02-15T03:13:22;0.30;99.90
52555;DHT22;38455;52.710;6.502;2023-02-15T03:15:50;0.40;99.90
52555;DHT22;38455;52.710;6.502;2023-02-15T03:18:43;0.40;99.90
52555;DHT22;38455;52.710;6.502;2023-02-15T03:21:11;0.40;99.90
52555;DHT22;38455;52.710;6.502;2023-02-15T03:23:57;0.40;99.90
52555;DHT22;38455;52.710;6.502;2023-02-15T03:26:25;0.40;99.90
52555;DHT22;38455;52.710;6.502;2023-02-15T03:28:55;0.40;99.90
52555;DHT22;38455;52.710;6.502;2023-02-15T03:31:24;0.40;99.90
52555;DHT22;38455;52.710;6.502;2023-02-15T03:34:03;0.40;99.90
52555;DHT22;38455;52.710;6.502;2023-02-15T03:36:39;0.30;99.90
52555;DHT22;38455;52.710;6.502;2023-02-15T03:40:11;0.40;99.90
52555;DHT22;38455;52.710;6.502;2023-02-15T03:42:13;0.40;99.90
52555;DHT22;38455;52.710;6.502;2023-02-15T03:44:56;0.30;99.90
52555;DHT22;38455;52.710;6.502;2023-02-15T03:47:30;0.30;99.90
52555;DHT22;38455;52.710;6.502;2023-02-15T03:52:29;0.20;99.90
52555;DHT22;38455;52.710;6.502;2023-02-15T03:54:56;0.20;99.90
52555;DHT22;38455;52.710;6.502;2023-02-15T03:57:27;0.20;99.90
52555;DHT22;38455;52.710;6.502;2023-02-15T04:00:19;0.20;99.90
52555;DHT22;38455;52.710;6.502;2023-02-15T04:03:09;0.20;99.90
52555;DHT22;38455;52.710;6.502;2023-02-15T04:05:36;0.20;99.90
52555;DHT22;38455;52.710;6.502;2023-02-15T04:08:02;0.20;99.90
52555;DHT22;38455;52.710;6.502;2023-02-15T04:10:28;0.20;99.90
52555;DHT22;38455;52.710;6.502;2023-02-15T04:13:12;0.20;99.90
52555;DHT22;38455;52.710;6.502;2023-02-15T04:15:37;0.20;99.90
52555;DHT22;38455;52.710;6.502;2023-02-15T04:18:21;0.10;99.90
52555;DHT22;38455;52.710;6.502;2023-02-15T04:21:07;0.10;99.90
52555;DHT22;38455;52.710;6.502;2023-02-15T04:23:51;0.20;99.90
52555;DHT22;38455;52.710;6.502;2023-02-15T04:26:36;0.30;99.90
52555;DHT22;38455;52.710;6.502;2023-02-15T04:29:01;0.30;99.90
52555;DHT22;38455;52.710;6.502;2023-02-15T04:31:27;0.40;99.90
52555;DHT22;38455;52.710;6.502;2023-02-15T04:33:53;0.40;99.90
52555;DHT22;38455;52.710;6.502;2023-02-15T04:36:18;0.40;99.90
52555;DHT22;38455;52.710;6.502;2023-02-15T04:38:44;0.40;99.90
52555;DHT22;38455;52.710;6.502;2023-02-15T04:41:10;0.50;99.90
52555;DHT22;38455;52.710;6.502;2023-02-15T04:43:37;0.40;99.90
52555;DHT22;38455;52.710;6.502;2023-02-15T04:46:03;0.40;99.90
52555;DHT22;38455;52.710;6.502;2023-02-15T04:48:29;0.30;99.90
52555;DHT22;38455;52.710;6.502;2023-02-15T04:50:55;0.30;99.90
52555;DHT22;38455;52.710;6.502;2023-02-15T04:53:20;0.30;99.90
52555;DHT22;38455;52.710;6.502;2023-02-15T04:55:46;0.30;99.90
52555;DHT22;38455;52.710;6.502;2023-02-15T04:58:12;0.20;99.90
52555;DHT22;38455;52.710;6.502;2023-02-15T05:00:37;0.30;99.90
52555;DHT22;38455;52.710;6.502;2023-02-15T05:03:03;0.30;99.90
52555;DHT22;38455;52.710;6.502;2023-02-15T05:05:28;0.30;99.90
52555;DHT22;38455;52.710;6.502;2023-02-15T05:07:54;0.30;99.90
52555;DHT22;38455;52.710;6.502;2023-02-15T05:10:20;0.30;99.90
52555;DHT22;38455;52.710;6.502;2023-02-15T05:12:46;0.30;99.90
52555;DHT22;38455;52.710;6.502;2023-02-15T05:15:12;0.40;99.90
52555;DHT22;38455;52.710;6.502;2023-02-15T05:17:37;0.40;99.90
52555;DHT22;38455;52.710;6.502;2023-02-15T05:20:04;0.40;99.90
52555;DHT22;38455;52.710;6.502;2023-02-15T05:22:30;0.40;99.90
52555;DHT22;38455;52.710;6.502;2023-02-15T05:24:55;0.40;99.90
52555;DHT22;38455;52.710;6.502;2023-02-15T05:27:40;0.40;99.90
52555;DHT22;38455;52.710;6.502;2023-02-15T05:30:24;0.50;99.90
52555;DHT22;38455;52.710;6.502;2023-02-15T05:32:49;0.50;99.90
52555;DHT22;38455;52.710;6.502;2023-02-15T05:35:16;0.50;99.90
52555;DHT22;38455;52.710;6.502;2023-02-15T05:37:41;0.50;99.90
52555;DHT22;38455;52.710;6.502;2023-02-15T05:40:08;0.50;99.90
52555;DHT22;38455;52.710;6.502;2023-02-15T05:42:34;0.40;99.90
52555;DHT22;38455;52.710;6.502;2023-02-15T05:44:59;0.40;99.90
52555;DHT22;38455;52.710;6.502;2023-02-15T05:47:25;0.30;99.90
52555;DHT22;38455;52.710;6.502;2023-02-15T05:49:51;0.40;99.90
52555;DHT22;38455;52.710;6.502;2023-02-15T05:52:16;0.40;99.90
52555;DHT22;38455;52.710;6.502;2023-02-15T05:54:42;0.50;99.90
52555;DHT22;38455;52.710;6.502;2023-02-15T05:57:07;0.50;99.90
52555;DHT22;38455;52.710;6.502;2023-02-15T05:59:33;0.50;99.90
52555;DHT22;38455;52.710;6.502;2023-02-15T06:01:59;0.50;99.90
52555;DHT22;38455;52.710;6.502;2023-02-15T06:04:27;0.50;99.90
52555;DHT22;38455;52.710;6.502;2023-02-15T06:06:53;0.50;99.90
52555;DHT22;38455;52.710;6.502;2023-02-15T06:09:18;0.50;99.90
52555;DHT22;38455;52.710;6.502;2023-02-15T06:11:45;0.50;99.90
52555;DHT22;38455;52.710;6.502;2023-02-15T06:14:11;0.50;99.90
52555;DHT22;38455;52.710;6.502;2023-02-15T06:16:37;0.50;99.90
52555;DHT22;38455;52.710;6.502;2023-02-15T06:19:03;0.50;99.90
52555;DHT22;38455;52.710;6.502;2023-02-15T06:21:30;0.60;99.90
52555;DHT22;38455;52.710;6.502;2023-02-15T06:23:56;0.60;99.90
52555;DHT22;38455;52.710;6.502;2023-02-15T06:26:22;0.60;99.90
52555;DHT22;38455;52.710;6.502;2023-02-15T06:28:47;0.50;99.90
52555;DHT22;38455;52.710;6.502;2023-02-15T06:31:13;0.60;99.90
52555;DHT22;38455;52.710;6.502;2023-02-15T06:33:39;0.60;99.90
52555;DHT22;38455;52.710;6.502;2023-02-15T06:36:04;0.60;99.90
52555;DHT22;38455;52.710;6.502;2023-02-15T06:38:30;0.60;99.90
52555;DHT22;38455;52.710;6.502;2023-02-15T06:40:56;0.60;99.90
52555;DHT22;38455;52.710;6.502;2023-02-15T06:43:22;0.50;99.90
52555;DHT22;38455;52.710;6.502;2023-02-15T06:45:48;0.40;99.90
52555;DHT22;38455;52.710;6.502;2023-02-15T06:48:13;0.40;99.90
52555;DHT22;38455;52.710;6.502;2023-02-15T06:50:39;0.30;99.90
52555;DHT22;38455;52.710;6.502;2023-02-15T06:53:05;0.30;99.90
52555;DHT22;38455;52.710;6.502;2023-02-15T06:55:30;0.30;99.90
52555;DHT22;38455;52.710;6.502;2023-02-15T06:57:56;0.30;99.90
52555;DHT22;38455;52.710;6.502;2023-02-15T07:00:22;0.30;99.90
52555;DHT22;38455;52.710;6.502;2023-02-15T07:02:56;0.40;99.90
52555;DHT22;38455;52.710;6.502;2023-02-15T07:05:23;0.40;99.90
52555;DHT22;38455;52.710;6.502;2023-02-15T07:07:49;0.50;99.90
52555;DHT22;38455;52.710;6.502;2023-02-15T07:10:15;0.50;99.90
52555;DHT22;38455;52.710;6.502;2023-02-15T07:12:41;0.70;99.90
52555;DHT22;38455;52.710;6.502;2023-02-15T07:15:07;0.70;99.90
52555;DHT22;38455;52.710;6.502;2023-02-15T07:17:35;0.80;99.90
52555;DHT22;38455;52.710;6.502;2023-02-15T07:20:01;0.90;99.90
52555;DHT22;38455;52.710;6.502;2023-02-15T07:22:27;1.00;99.90
52555;DHT22;38455;52.710;6.502;2023-02-15T07:24:53;1.00;99.90
52555;DHT22;38455;52.710;6.502;2023-02-15T07:27:20;1.10;99.90
52555;DHT22;38455;52.710;6.502;2023-02-15T07:29:46;1.10;99.90
52555;DHT22;38455;52.710;6.502;2023-02-15T07:32:12;1.20;99.90
52555;DHT22;38455;52.710;6.502;2023-02-15T07:34:38;1.30;99.90
52555;DHT22;38455;52.710;6.502;2023-02-15T07:37:03;1.30;99.90
52555;DHT22;38455;52.710;6.502;2023-02-15T07:39:30;1.40;99.90
52555;DHT22;38455;52.710;6.502;2023-02-15T07:41:55;1.40;99.90
52555;DHT22;38455;52.710;6.502;2023-02-15T07:44:21;1.40;99.90
52555;DHT22;38455;52.710;6.502;2023-02-15T07:46:46;1.50;99.90
52555;DHT22;38455;52.710;6.502;2023-02-15T07:49:12;1.60;99.90
52555;DHT22;38455;52.710;6.502;2023-02-15T07:51:38;1.60;99.90
52555;DHT22;38455;52.710;6.502;2023-02-15T07:54:03;1.70;99.90
52555;DHT22;38455;52.710;6.502;2023-02-15T07:56:29;1.80;99.90
52555;DHT22;38455;52.710;6.502;2023-02-15T07:58:55;1.80;99.90
52555;DHT22;38455;52.710;6.502;2023-02-15T08:03:49;2.10;99.90
52555;DHT22;38455;52.710;6.502;2023-02-15T08:06:15;2.30;99.90
52555;DHT22;38455;52.710;6.502;2023-02-15T08:08:41;2.50;99.90
52555;DHT22;38455;52.710;6.502;2023-02-15T08:11:15;2.90;99.90
52555;DHT22;38455;52.710;6.502;2023-02-15T08:16:35;4.20;99.90
52555;DHT22;38455;52.710;6.502;2023-02-15T08:19:04;4.60;99.90
52555;DHT22;38455;52.710;6.502;2023-02-15T08:21:31;4.80;99.90
52555;DHT22;38455;52.710;6.502;2023-02-15T08:23:58;5.00;99.90
52555;DHT22;38455;52.710;6.502;2023-02-15T08:26:24;5.40;99.90
52555;DHT22;38455;52.710;6.502;2023-02-15T08:28:51;5.90;99.90
52555;DHT22;38455;52.710;6.502;2023-02-15T08:31:17;6.30;99.90
52555;DHT22;38455;52.710;6.502;2023-02-15T08:33:44;6.60;99.90
52555;DHT22;38455;52.710;6.502;2023-02-15T08:36:15;7.00;99.90
52555;DHT22;38455;52.710;6.502;2023-02-15T08:38:41;7.30;99.90
52555;DHT22;38455;52.710;6.502;2023-02-15T08:41:32;7.40;99.90
52555;DHT22;38455;52.710;6.502;2023-02-15T08:43:59;7.80;99.90
52555;DHT22;38455;52.710;6.502;2023-02-15T08:46:27;8.00;99.90
52555;DHT22;38455;52.710;6.502;2023-02-15T08:48:53;8.30;99.90
52555;DHT22;38455;52.710;6.502;2023-02-15T08:51:21;8.50;99.90
52555;DHT22;38455;52.710;6.502;2023-02-15T08:53:51;8.90;99.90
52555;DHT22;38455;52.710;6.502;2023-02-15T08:56:18;9.00;99.90
52555;DHT22;38455;52.710;6.502;2023-02-15T08:58:44;9.10;99.90
52555;DHT22;38455;52.710;6.502;2023-02-15T09:01:12;9.30;99.90
52555;DHT22;38455;52.710;6.502;2023-02-15T09:03:38;9.50;99.90
52555;DHT22;38455;52.710;6.502;2023-02-15T09:06:04;9.70;99.90
52555;DHT22;38455;52.710;6.502;2023-02-15T09:08:31;9.90;99.90
52555;DHT22;38455;52.710;6.502;2023-02-15T09:11:12;10.10;99.90
52555;DHT22;38455;52.710;6.502;2023-02-15T09:13:38;10.00;99.90
52555;DHT22;38455;52.710;6.502;2023-02-15T09:16:06;9.90;99.90
52555;DHT22;38455;52.710;6.502;2023-02-15T09:18:35;9.90;99.90
52555;DHT22;38455;52.710;6.502;2023-02-15T09:21:10;9.90;99.90
52555;DHT22;38455;52.710;6.502;2023-02-15T09:23:36;10.10;99.90
52555;DHT22;38455;52.710;6.502;2023-02-15T09:26:07;10.30;99.90
52555;DHT22;38455;52.710;6.502;2023-02-15T09:28:33;10.40;99.90
52555;DHT22;38455;52.710;6.502;2023-02-15T09:31:26;10.50;99.90
52555;DHT22;38455;52.710;6.502;2023-02-15T09:33:52;10.70;99.90
52555;DHT22;38455;52.710;6.502;2023-02-15T09:38:50;11.20;99.90
52555;DHT22;38455;52.710;6.502;2023-02-15T09:41:24;11.50;99.90
52555;DHT22;38455;52.710;6.502;2023-02-15T09:46:31;12.10;99.90
52555;DHT22;38455;52.710;6.502;2023-02-15T09:49:55;12.40;99.90
52555;DHT22;38455;52.710;6.502;2023-02-15T09:57:38;12.50;99.90
52555;DHT22;38455;52.710;6.502;2023-02-15T10:28:23;12.90;99.90
52555;DHT22;38455;52.710;6.502;2023-02-15T10:30:51;13.00;99.90
52555;DHT22;38455;52.710;6.502;2023-02-15T10:33:42;13.10;99.90
52555;DHT22;38455;52.710;6.502;2023-02-15T10:39:02;13.40;99.90
52555;DHT22;38455;52.710;6.502;2023-02-15T10:42:06;13.70;99.90
52555;DHT22;38455;52.710;6.502;2023-02-15T10:44:40;13.80;99.90
52555;DHT22;38455;52.710;6.502;2023-02-15T10:58:22;14.40;99.90
52555;DHT22;38455;52.710;6.502;2023-02-15T11:01:10;14.60;99.90
52555;DHT22;38455;52.710;6.502;2023-02-15T11:03:49;14.80;99.90
52555;DHT22;38455;52.710;6.502;2023-02-15T11:06:23;14.70;99.90
52555;DHT22;38455;52.710;6.502;2023-02-15T11:08:55;14.90;99.90
52555;DHT22;38455;52.710;6.502;2023-02-15T11:11:26;15.10;99.90
52555;DHT22;38455;52.710;6.502;2023-02-15T11:13:56;15.10;99.90
52555;DHT22;38455;52.710;6.502;2023-02-15T11:16:31;14.90;99.90
52555;DHT22;38455;52.710;6.502;2023-02-15T11:19:01;15.20;99.90
52555;DHT22;38455;52.710;6.502;2023-02-15T11:21:37;15.40;99.90
52555;DHT22;38455;52.710;6.502;2023-02-15T11:24:13;15.40;99.90
52555;DHT22;38455;52.710;6.502;2023-02-15T11:29:17;15.60;99.90
52555;DHT22;38455;52.710;6.502;2023-02-15T11:31:51;15.70;99.90
52555;DHT22;38455;52.710;6.502;2023-02-15T11:34:37;15.90;99.90
52555;DHT22;38455;52.710;6.502;2023-02-15T11:37:18;16.10;99.90
52555;DHT22;38455;52.710;6.502;2023-02-15T11:39:45;16.30;99.90
52555;DHT22;38455;52.710;6.502;2023-02-15T11:42:20;16.40;99.90
52555;DHT22;38455;52.710;6.502;2023-02-15T11:47:38;17.00;99.90
52555;DHT22;38455;52.710;6.502;2023-02-15T11:50:04;16.80;99.90
52555;DHT22;38455;52.710;6.502;2023-02-15T11:52:30;16.80;99.90
52555;DHT22;38455;52.710;6.502;2023-02-15T11:54:56;16.70;99.90
52555;DHT22;38455;52.710;6.502;2023-02-15T12:02:29;17.00;98.80
52555;DHT22;38455;52.710;6.502;2023-02-15T12:05:01;17.20;98.50
52555;DHT22;38455;52.710;6.502;2023-02-15T12:07:40;17.40;98.50
52555;DHT22;38455;52.710;6.502;2023-02-15T12:10:23;17.70;97.60
52555;DHT22;38455;52.710;6.502;2023-02-15T12:15:34;17.80;95.70
52555;DHT22;38455;52.710;6.502;2023-02-15T12:18:01;17.90;96.40
52555;DHT22;38455;52.710;6.502;2023-02-15T12:20:33;17.80;95.80
52555;DHT22;38455;52.710;6.502;2023-02-15T12:23:06;17.60;96.10
52555;DHT22;38455;52.710;6.502;2023-02-15T12:25:43;17.50;96.20
52555;DHT22;38455;52.710;6.502;2023-02-15T12:30:46;17.10;97.00
52555;DHT22;38455;52.710;6.502;2023-02-15T12:33:30;17.00;97.00
52555;DHT22;38455;52.710;6.502;2023-02-15T12:36:15;17.00;96.80
52555;DHT22;38455;52.710;6.502;2023-02-15T12:38:42;16.60;97.30
52555;DHT22;38455;52.710;6.502;2023-02-15T12:41:26;16.30;98.10
52555;DHT22;38455;52.710;6.502;2023-02-15T12:46:41;15.80;99.40
52555;DHT22;38455;52.710;6.502;2023-02-15T12:51:49;15.10;99.90
52555;DHT22;38455;52.710;6.502;2023-02-15T12:56:50;14.30;99.90
52555;DHT22;38455;52.710;6.502;2023-02-15T12:59:16;14.10;99.90
52555;DHT22;38455;52.710;6.502;2023-02-15T13:01:46;14.20;99.90
52555;DHT22;38455;52.710;6.502;2023-02-15T13:04:28;13.90;99.90
52555;DHT22;38455;52.710;6.502;2023-02-15T13:06:57;13.80;99.90
52555;DHT22;38455;52.710;6.502;2023-02-15T13:11:57;13.50;99.90
52555;DHT22;38455;52.710;6.502;2023-02-15T13:14:31;13.50;99.90
52555;DHT22;38455;52.710;6.502;2023-02-15T13:17:00;13.40;99.90
52555;DHT22;38455;52.710;6.502;2023-02-15T13:19:42;13.40;99.90
52555;DHT22;38455;52.710;6.502;2023-02-15T13:22:14;13.40;99.90
52555;DHT22;38455;52.710;6.502;2023-02-15T13:24:44;13.40;99.90
52555;DHT22;38455;52.710;6.502;2023-02-15T13:27:15;13.30;99.90
52555;DHT22;38455;52.710;6.502;2023-02-15T13:29:48;13.20;99.90
52555;DHT22;38455;52.710;6.502;2023-02-15T13:32:21;13.20;99.90
52555;DHT22;38455;52.710;6.502;2023-02-15T13:34:49;13.10;99.90
52555;DHT22;38455;52.710;6.502;2023-02-15T13:40:13;13.10;99.90
52555;DHT22;38455;52.710;6.502;2023-02-15T13:46:05;13.00;99.90
52555;DHT22;38455;52.710;6.502;2023-02-15T13:48:40;13.00;99.90
52555;DHT22;38455;52.710;6.502;2023-02-15T13:57:12;13.00;99.90
52555;DHT22;38455;52.710;6.502;2023-02-15T14:05:23;13.40;99.90
52555;DHT22;38455;52.710;6.502;2023-02-15T14:08:25;13.40;99.90
52555;DHT22;38455;52.710;6.502;2023-02-15T14:10:59;13.30;99.90
52555;DHT22;38455;52.710;6.502;2023-02-15T14:21:15;12.80;99.90
52555;DHT22;38455;52.710;6.502;2023-02-15T14:23:45;12.80;99.90
52555;DHT22;38455;52.710;6.502;2023-02-15T14:31:45;12.50;99.90
52555;DHT22;38455;52.710;6.502;2023-02-15T14:34:35;12.50;99.90
52555;DHT22;38455;52.710;6.502;2023-02-15T14:37:03;12.50;99.90
52555;DHT22;38455;52.710;6.502;2023-02-15T14:39:46;12.50;99.90
52555;DHT22;38455;52.710;6.502;2023-02-15T14:42:58;12.60;99.90
52555;DHT22;38455;52.710;6.502;2023-02-15T14:50:38;12.50;99.90
52555;DHT22;38455;52.710;6.502;2023-02-15T14:53:37;12.40;99.90
52555;DHT22;38455;52.710;6.502;2023-02-15T15:01:33;12.20;99.90
52555;DHT22;38455;52.710;6.502;2023-02-15T15:04:15;12.10;99.90
52555;DHT22;38455;52.710;6.502;2023-02-15T15:06:59;12.00;99.90
52555;DHT22;38455;52.710;6.502;2023-02-15T15:09:27;12.00;99.90
52555;DHT22;38455;52.710;6.502;2023-02-15T15:11:54;11.90;99.90
52555;DHT22;38455;52.710;6.502;2023-02-15T15:17:03;11.90;99.90
52555;DHT22;38455;52.710;6.502;2023-02-15T15:22:30;11.70;99.90
52555;DHT22;38455;52.710;6.502;2023-02-15T15:25:00;11.70;99.90
52555;DHT22;38455;52.710;6.502;2023-02-15T15:27:55;11.60;99.90
52555;DHT22;38455;52.710;6.502;2023-02-15T15:32:55;11.40;99.90
52555;DHT22;38455;52.710;6.502;2023-02-15T15:38:44;11.40;99.90
52555;DHT22;38455;52.710;6.502;2023-02-15T15:46:33;11.20;99.90
52555;DHT22;38455;52.710;6.502;2023-02-15T15:49:14;11.10;99.90
52555;DHT22;38455;52.710;6.502;2023-02-15T15:51:42;11.10;99.90
52555;DHT22;38455;52.710;6.502;2023-02-15T15:54:17;11.00;99.90
52555;DHT22;38455;52.710;6.502;2023-02-15T15:56:51;11.00;99.90
52555;DHT22;38455;52.710;6.502;2023-02-15T15:59:25;10.90;99.90
52555;DHT22;38455;52.710;6.502;2023-02-15T16:01:51;10.80;99.90
52555;DHT22;38455;52.710;6.502;2023-02-15T16:04:27;10.70;99.90
52555;DHT22;38455;52.710;6.502;2023-02-15T16:06:56;10.60;99.90
52555;DHT22;38455;52.710;6.502;2023-02-15T16:09:24;10.60;99.90
52555;DHT22;38455;52.710;6.502;2023-02-15T16:11:59;10.50;99.90
52555;DHT22;38455;52.710;6.502;2023-02-15T16:14:37;10.50;99.90
52555;DHT22;38455;52.710;6.502;2023-02-15T16:17:06;10.30;99.90
52555;DHT22;38455;52.710;6.502;2023-02-15T16:19:36;10.20;99.90
52555;DHT22;38455;52.710;6.502;2023-02-15T16:22:04;10.10;99.90
52555;DHT22;38455;52.710;6.502;2023-02-15T16:27:26;10.00;99.90
52555;DHT22;38455;52.710;6.502;2023-02-15T16:29:54;9.90;99.90
52555;DHT22;38455;52.710;6.502;2023-02-15T16:32:25;9.80;99.90
52555;DHT22;38455;52.710;6.502;2023-02-15T16:35:01;9.80;99.90
52555;DHT22;38455;52.710;6.502;2023-02-15T16:37:34;9.70;99.90
52555;DHT22;38455;52.710;6.502;2023-02-15T16:40:00;9.60;99.90
52555;DHT22;38455;52.710;6.502;2023-02-15T16:42:25;9.50;99.90
52555;DHT22;38455;52.710;6.502;2023-02-15T16:45:00;9.40;99.90
52555;DHT22;38455;52.710;6.502;2023-02-15T16:47:31;9.30;99.90
52555;DHT22;38455;52.710;6.502;2023-02-15T16:50:01;9.30;99.90
52555;DHT22;38455;52.710;6.502;2023-02-15T16:52:28;9.20;99.90
52555;DHT22;38455;52.710;6.502;2023-02-15T16:54:57;9.10;99.90
52555;DHT22;38455;52.710;6.502;2023-02-15T16:57:30;9.00;99.90
52555;DHT22;38455;52.710;6.502;2023-02-15T17:00:08;8.90;99.90
52555;DHT22;38455;52.710;6.502;2023-02-15T17:02:53;8.80;99.90
52555;DHT22;38455;52.710;6.502;2023-02-15T17:05:20;8.80;99.90
52555;DHT22;38455;52.710;6.502;2023-02-15T17:10:33;8.60;99.90
52555;DHT22;38455;52.710;6.502;2023-02-15T17:13:03;8.50;99.90
52555;DHT22;38455;52.710;6.502;2023-02-15T17:15:36;8.40;99.90
52555;DHT22;38455;52.710;6.502;2023-02-15T17:18:19;8.40;99.90
52555;DHT22;38455;52.710;6.502;2023-02-15T17:20:46;8.30;99.90
52555;DHT22;38455;52.710;6.502;2023-02-15T17:23:22;8.20;99.90
52555;DHT22;38455;52.710;6.502;2023-02-15T17:25:51;8.20;99.90
52555;DHT22;38455;52.710;6.502;2023-02-15T17:28:30;8.20;99.90
52555;DHT22;38455;52.710;6.502;2023-02-15T17:30:57;8.20;99.90
52555;DHT22;38455;52.710;6.502;2023-02-15T17:33:49;8.20;99.90
52555;DHT22;38455;52.710;6.502;2023-02-15T17:36:20;8.20;99.90
52555;DHT22;38455;52.710;6.502;2023-02-15T17:41:31;8.20;99.90
52555;DHT22;38455;52.710;6.502;2023-02-15T17:44:00;8.10;99.90
52555;DHT22;38455;52.710;6.502;2023-02-15T17:46:27;8.00;99.90
52555;DHT22;38455;52.710;6.502;2023-02-15T17:48:55;8.00;99.90
52555;DHT22;38455;52.710;6.502;2023-02-15T17:51:22;7.90;99.90
52555;DHT22;38455;52.710;6.502;2023-02-15T17:53:48;7.90;99.90
52555;DHT22;38455;52.710;6.502;2023-02-15T17:56:33;7.80;99.90
52555;DHT22;38455;52.710;6.502;2023-02-15T17:58:59;7.80;99.90
52555;DHT22;38455;52.710;6.502;2023-02-15T18:01:25;7.80;99.90
52555;DHT22;38455;52.710;6.502;2023-02-15T18:04:11;7.80;99.90
52555;DHT22;38455;52.710;6.502;2023-02-15T18:06:56;7.70;99.90
52555;DHT22;38455;52.710;6.502;2023-02-15T18:09:40;7.80;99.90
52555;DHT22;38455;52.710;6.502;2023-02-15T18:12:30;7.80;99.90
52555;DHT22;38455;52.710;6.502;2023-02-15T18:14:56;7.70;99.90
52555;DHT22;38455;52.710;6.502;2023-02-15T18:17:32;7.70;99.90
52555;DHT22;38455;52.710;6.502;2023-02-15T18:19:58;7.70;99.90
52555;DHT22;38455;52.710;6.502;2023-02-15T18:22:34;7.70;99.90
52555;DHT22;38455;52.710;6.502;2023-02-15T18:25:04;7.70;99.90
52555;DHT22;38455;52.710;6.502;2023-02-15T18:27:30;7.70;99.90
52555;DHT22;38455;52.710;6.502;2023-02-15T18:29:56;7.70;99.90
52555;DHT22;38455;52.710;6.502;2023-02-15T18:32:41;7.70;99.90
52555;DHT22;38455;52.710;6.502;2023-02-15T18:35:16;7.60;99.90
52555;DHT22;38455;52.710;6.502;2023-02-15T18:37:44;7.60;99.90
52555;DHT22;38455;52.710;6.502;2023-02-15T18:40:17;7.70;99.90
52555;DHT22;38455;52.710;6.502;2023-02-15T18:42:44;7.60;99.90
52555;DHT22;38455;52.710;6.502;2023-02-15T18:45:16;7.60;99.90
52555;DHT22;38455;52.710;6.502;2023-02-15T18:47:44;7.60;99.90
52555;DHT22;38455;52.710;6.502;2023-02-15T18:50:12;7.60;99.90
52555;DHT22;38455;52.710;6.502;2023-02-15T18:52:38;7.60;99.90
52555;DHT22;38455;52.710;6.502;2023-02-15T18:55:19;7.50;99.90
52555;DHT22;38455;52.710;6.502;2023-02-15T18:57:46;7.60;99.90
52555;DHT22;38455;52.710;6.502;2023-02-15T19:00:26;7.50;99.90
52555;DHT22;38455;52.710;6.502;2023-02-15T19:02:57;7.50;99.90
52555;DHT22;38455;52.710;6.502;2023-02-15T19:05:23;7.40;99.90